createdAt,value
2018-06-21T00:00:48.268Z,10.30
2018-06-21T00:01:53.772Z,10.60
2018-06-21T00:02:58.280Z,10.80
2018-06-21T00:04:03.916Z,9.20
2018-06-21T00:05:09.316Z,9.10
2018-06-21T00:06:15.839Z,8.60
2018-06-21T00:07:21.379Z,9.00
2018-06-21T00:08:25.869Z,8.10
2018-06-21T00:09:31.398Z,8.80
2018-06-21T00:10:36.927Z,8.50
2018-06-21T00:11:43.438Z,7.80
2018-06-21T00:12:48.957Z,8.30
2018-06-21T00:13:53.461Z,7.80
2018-06-21T00:14:59.045Z,9.70
2018-06-21T00:16:04.490Z,8.80
2018-06-21T00:17:11.020Z,9.00
2018-06-21T00:18:16.545Z,8.60
2018-06-21T00:19:21.059Z,8.80
2018-06-21T00:20:26.569Z,9.60
2018-06-21T00:21:32.077Z,9.00
2018-06-21T00:22:38.620Z,9.70
2018-06-21T00:23:44.127Z,8.70
2018-06-21T00:24:48.641Z,8.10
2018-06-21T00:25:54.162Z,9.50
2018-06-21T00:26:59.666Z,9.50
2018-06-21T00:28:06.207Z,8.60
2018-06-21T00:29:11.723Z,9.40
2018-06-21T00:30:16.225Z,8.90
2018-06-21T00:31:21.763Z,10.60
2018-06-21T00:32:27.277Z,9.10
2018-06-21T00:33:33.795Z,10.20
2018-06-21T00:34:39.313Z,9.20
2018-06-21T00:35:43.812Z,9.40
2018-06-21T00:36:49.433Z,9.30
2018-06-21T00:37:54.800Z,9.70
2018-06-21T00:39:01.374Z,9.80
2018-06-21T00:40:06.898Z,9.60
2018-06-21T00:41:11.410Z,10.00
2018-06-21T00:42:16.938Z,9.90
2018-06-21T00:43:22.437Z,8.80
2018-06-21T00:44:28.967Z,8.40
2018-06-21T00:45:34.483Z,8.60
2018-06-21T00:46:39.000Z,9.10
2018-06-21T00:47:44.505Z,8.50
2018-06-21T00:48:50.029Z,7.40
2018-06-21T00:49:56.565Z,8.70
2018-06-21T00:51:02.086Z,8.80
2018-06-21T00:52:06.579Z,7.30
2018-06-21T00:53:12.097Z,7.70
2018-06-21T00:54:17.611Z,8.20
2018-06-21T00:55:24.153Z,7.60
2018-06-21T00:56:29.666Z,7.20
2018-06-21T00:57:34.178Z,7.60
2018-06-21T00:58:39.694Z,7.30
2018-06-21T00:59:45.223Z,8.20
2018-06-21T01:00:51.730Z,9.40
2018-06-21T01:01:57.247Z,8.10
2018-06-21T01:03:01.765Z,9.30
2018-06-21T01:04:07.287Z,8.50
2018-06-21T01:05:12.804Z,8.30
2018-06-21T01:06:19.333Z,8.90
2018-06-21T01:07:24.844Z,8.90
2018-06-21T01:08:29.373Z,7.90
2018-06-21T01:09:34.866Z,10.80
2018-06-21T01:10:40.382Z,8.30
2018-06-21T01:11:46.907Z,7.80
2018-06-21T01:12:52.426Z,8.50
2018-06-21T01:13:56.944Z,7.40
2018-06-21T01:15:02.465Z,7.50
2018-06-21T01:16:07.979Z,8.60
2018-06-21T01:17:14.500Z,8.90
2018-06-21T01:18:20.022Z,8.20
2018-06-21T01:19:24.519Z,7.60
2018-06-21T01:20:30.043Z,10.00
2018-06-21T01:21:35.569Z,8.10
2018-06-21T01:22:42.090Z,9.10
2018-06-21T01:23:47.605Z,8.10
2018-06-21T01:24:52.112Z,8.30
2018-06-21T01:25:57.630Z,8.40
2018-06-21T01:27:03.163Z,8.50
2018-06-21T01:28:09.674Z,8.50
2018-06-21T01:29:15.200Z,8.80
2018-06-21T01:30:19.707Z,11.50
2018-06-21T01:31:25.216Z,8.50
2018-06-21T01:32:30.740Z,8.70
2018-06-21T01:33:37.258Z,8.90
2018-06-21T01:34:42.789Z,11.20
2018-06-21T01:35:47.294Z,8.60
2018-06-21T01:36:52.808Z,9.30
2018-06-21T01:37:58.328Z,9.10
2018-06-21T01:39:04.855Z,8.80
2018-06-21T01:40:10.365Z,8.60
2018-06-21T01:41:14.876Z,9.40
2018-06-21T01:42:20.456Z,11.20
2018-06-21T01:43:25.907Z,8.90
2018-06-21T01:44:32.436Z,9.20
2018-06-21T01:45:37.952Z,8.90
2018-06-21T01:46:42.458Z,9.00
2018-06-21T01:47:47.976Z,9.00
2018-06-21T01:48:53.487Z,8.20
2018-06-21T01:50:00.024Z,8.50
2018-06-21T01:51:05.539Z,9.60
2018-06-21T01:52:10.042Z,9.40
2018-06-21T01:53:15.562Z,8.70
2018-06-21T01:54:21.074Z,9.00
2018-06-21T01:55:27.599Z,10.70
2018-06-21T01:56:33.129Z,9.70
2018-06-21T01:57:37.639Z,9.90
2018-06-21T01:58:43.141Z,9.70
2018-06-21T01:59:48.662Z,10.10
2018-06-21T02:00:55.189Z,9.60
2018-06-21T02:02:00.709Z,8.90
2018-06-21T02:03:05.213Z,9.50
2018-06-21T02:04:10.742Z,10.60
2018-06-21T02:05:16.247Z,9.30
2018-06-21T02:06:22.786Z,9.90
2018-06-21T02:07:28.288Z,11.40
2018-06-21T02:08:32.812Z,11.30
2018-06-21T02:09:38.314Z,11.50
2018-06-21T02:10:43.839Z,9.00
2018-06-21T02:11:50.356Z,10.20
2018-06-21T02:12:55.870Z,9.90
2018-06-21T02:14:00.388Z,9.30
2018-06-21T02:15:05.912Z,10.40
2018-06-21T02:16:11.423Z,9.70
2018-06-21T02:17:17.941Z,9.90
2018-06-21T02:18:23.457Z,11.20
2018-06-21T02:19:27.977Z,9.90
2018-06-21T02:20:33.499Z,9.90
2018-06-21T02:21:39.018Z,9.40
2018-06-21T02:22:45.529Z,10.20
2018-06-21T02:23:51.076Z,10.00
2018-06-21T02:24:55.548Z,9.80
2018-06-21T02:26:01.067Z,10.00
2018-06-21T02:27:06.587Z,9.60
2018-06-21T02:28:13.121Z,11.10
2018-06-21T02:29:18.629Z,9.10
2018-06-21T02:30:23.126Z,9.80
2018-06-21T02:31:28.648Z,8.80
2018-06-21T02:32:34.167Z,9.30
2018-06-21T02:33:40.688Z,9.60
2018-06-21T02:34:46.208Z,10.30
2018-06-21T02:35:50.723Z,10.20
2018-06-21T02:36:56.237Z,10.00
2018-06-21T02:38:01.752Z,11.60
2018-06-21T02:39:08.281Z,10.10
2018-06-21T02:40:13.805Z,10.10
2018-06-21T02:41:18.302Z,10.90
2018-06-21T02:42:23.820Z,10.40
2018-06-21T02:43:29.326Z,11.70
2018-06-21T02:44:35.864Z,10.40
2018-06-21T02:45:41.374Z,11.70
2018-06-21T02:46:45.884Z,13.00
2018-06-21T02:47:51.406Z,11.90
2018-06-21T02:48:56.913Z,12.00
2018-06-21T02:50:03.458Z,11.40
2018-06-21T02:51:08.966Z,11.40
2018-06-21T02:52:13.463Z,12.90
2018-06-21T02:53:19.028Z,11.40
2018-06-21T02:54:24.500Z,10.90
2018-06-21T02:55:31.030Z,13.00
2018-06-21T02:56:36.544Z,12.40
2018-06-21T02:57:41.056Z,12.60
2018-06-21T02:58:46.567Z,11.50
2018-06-21T02:59:52.080Z,12.30
2018-06-21T03:00:58.604Z,10.70
2018-06-21T03:02:04.673Z,13.70
2018-06-21T03:03:08.628Z,11.10
2018-06-21T03:04:14.151Z,10.90
2018-06-21T03:05:19.656Z,10.60
2018-06-21T03:06:26.197Z,10.60
2018-06-21T03:07:31.712Z,12.20
2018-06-21T03:08:36.223Z,10.80
2018-06-21T03:09:41.741Z,11.30
2018-06-21T03:10:47.259Z,11.20
2018-06-21T03:11:53.782Z,10.70
2018-06-21T03:12:59.297Z,12.90
2018-06-21T03:14:03.809Z,10.80
2018-06-21T03:15:09.312Z,11.20
2018-06-21T03:16:14.849Z,10.50
2018-06-21T03:17:21.367Z,10.00
2018-06-21T03:18:26.887Z,10.30
2018-06-21T03:19:31.394Z,11.60
2018-06-21T03:20:36.982Z,12.70
2018-06-21T03:21:42.423Z,10.20
2018-06-21T03:22:48.951Z,9.60
2018-06-21T03:23:54.473Z,10.40
2018-06-21T03:24:58.967Z,12.90
2018-06-21T03:26:04.493Z,10.10
2018-06-21T03:27:10.010Z,10.10
2018-06-21T03:28:16.533Z,12.60
2018-06-21T03:29:22.053Z,10.80
2018-06-21T03:30:26.567Z,11.80
2018-06-21T03:31:32.073Z,11.90
2018-06-21T03:32:37.588Z,10.80
2018-06-21T03:33:44.114Z,10.60
2018-06-21T03:34:49.640Z,10.10
2018-06-21T03:35:54.136Z,10.10
2018-06-21T03:36:59.667Z,9.70
2018-06-21T03:38:05.178Z,12.00
2018-06-21T03:39:11.701Z,11.60
2018-06-21T03:40:17.225Z,10.00
2018-06-21T03:41:21.743Z,13.20
2018-06-21T03:42:27.242Z,12.00
2018-06-21T03:43:32.759Z,11.70
2018-06-21T03:44:39.294Z,11.40
2018-06-21T03:45:44.805Z,10.80
2018-06-21T03:46:49.317Z,10.70
2018-06-21T03:47:54.829Z,11.50
2018-06-21T03:49:00.342Z,10.10
2018-06-21T03:50:06.874Z,11.20
2018-06-21T03:51:12.400Z,11.10
2018-06-21T03:52:16.936Z,10.10
2018-06-21T03:53:22.408Z,10.00
2018-06-21T03:54:27.942Z,13.20
2018-06-21T03:55:34.460Z,10.70
2018-06-21T03:56:39.985Z,13.30
2018-06-21T03:57:44.540Z,11.90
2018-06-21T03:58:49.996Z,11.30
2018-06-21T03:59:55.513Z,12.10
2018-06-21T04:01:02.043Z,11.50
2018-06-21T04:02:07.572Z,11.30
2018-06-21T04:03:12.087Z,12.50
2018-06-21T04:04:17.577Z,13.40
2018-06-21T04:05:23.162Z,11.10
2018-06-21T04:06:29.636Z,10.40
2018-06-21T04:07:35.144Z,11.90
2018-06-21T04:08:39.651Z,11.90
2018-06-21T04:09:45.174Z,12.30
2018-06-21T04:10:51.208Z,11.60
2018-06-21T04:11:57.216Z,11.10
2018-06-21T04:13:02.744Z,13.20
2018-06-21T04:14:07.245Z,13.80
2018-06-21T04:15:12.758Z,12.20
2018-06-21T04:16:18.282Z,13.60
2018-06-21T04:17:24.859Z,12.10
2018-06-21T04:18:30.316Z,13.10
2018-06-21T04:19:34.818Z,14.70
2018-06-21T04:20:40.342Z,16.70
2018-06-21T04:21:45.861Z,14.90
2018-06-21T04:22:52.385Z,12.70
2018-06-21T04:23:57.902Z,12.20
2018-06-21T04:25:02.408Z,12.30
2018-06-21T04:26:07.931Z,12.70
2018-06-21T04:27:13.440Z,16.20
2018-06-21T04:28:19.961Z,18.30
2018-06-21T04:29:25.546Z,17.70
2018-06-21T04:30:30.054Z,12.60
2018-06-21T04:31:35.519Z,15.40
2018-06-21T04:32:41.028Z,13.20
2018-06-21T04:33:47.551Z,13.70
2018-06-21T04:34:53.070Z,16.60
2018-06-21T04:35:57.594Z,13.60
2018-06-21T04:37:03.090Z,14.40
2018-06-21T04:38:08.613Z,15.90
2018-06-21T04:39:15.132Z,13.90
2018-06-21T04:40:20.658Z,14.90
2018-06-21T04:41:25.170Z,14.80
2018-06-21T04:42:30.680Z,14.90
2018-06-21T04:43:36.196Z,17.10
2018-06-21T04:44:42.731Z,15.10
2018-06-21T04:45:48.271Z,17.50
2018-06-21T04:46:52.761Z,15.40
2018-06-21T04:47:58.263Z,14.10
2018-06-21T04:49:03.777Z,14.10
2018-06-21T04:50:10.309Z,13.90
2018-06-21T04:51:15.839Z,14.40
2018-06-21T04:52:20.331Z,13.20
2018-06-21T04:53:25.848Z,14.80
2018-06-21T04:54:31.394Z,14.20
2018-06-21T04:55:37.891Z,13.10
2018-06-21T04:56:43.419Z,14.40
2018-06-21T04:57:47.925Z,13.00
2018-06-21T04:58:53.443Z,14.30
2018-06-21T04:59:59.009Z,12.40
2018-06-21T05:01:05.491Z,14.60
2018-06-21T05:02:11.025Z,14.40
2018-06-21T05:03:15.516Z,14.40
2018-06-21T05:04:21.035Z,12.30
2018-06-21T05:05:26.549Z,12.10
2018-06-21T05:06:33.076Z,13.00
2018-06-21T05:07:38.592Z,12.00
2018-06-21T05:08:43.093Z,13.30
2018-06-21T05:09:48.609Z,14.50
2018-06-21T05:10:54.126Z,12.80
2018-06-21T05:12:00.655Z,12.10
2018-06-21T05:13:06.181Z,14.90
2018-06-21T05:14:10.687Z,16.00
2018-06-21T05:15:16.196Z,15.00
2018-06-21T05:16:21.711Z,14.90
2018-06-21T05:17:28.237Z,13.20
2018-06-21T05:18:33.771Z,13.50
2018-06-21T05:19:38.275Z,12.60
2018-06-21T05:20:43.784Z,13.50
2018-06-21T05:21:49.302Z,14.40
2018-06-21T05:22:55.831Z,13.00
2018-06-21T05:24:01.355Z,11.90
2018-06-21T05:25:05.853Z,13.50
2018-06-21T05:26:11.366Z,12.60
2018-06-21T05:27:16.882Z,12.80
2018-06-21T05:28:23.427Z,12.50
2018-06-21T05:29:28.940Z,15.20
2018-06-21T05:30:33.445Z,15.60
2018-06-21T05:31:38.957Z,15.30
2018-06-21T05:32:44.478Z,16.40
2018-06-21T05:33:50.993Z,14.60
2018-06-21T05:34:56.543Z,17.00
2018-06-21T05:36:01.112Z,17.70
2018-06-21T05:37:06.547Z,17.40
2018-06-21T05:38:12.065Z,17.30
2018-06-21T05:39:18.596Z,17.10
2018-06-21T05:40:24.105Z,18.40
2018-06-21T05:41:28.611Z,18.70
2018-06-21T05:42:34.123Z,17.20
2018-06-21T05:43:39.663Z,18.10
2018-06-21T05:44:46.174Z,20.10
2018-06-21T05:45:51.695Z,20.60
2018-06-21T05:46:56.189Z,19.40
2018-06-21T05:48:01.731Z,19.70
2018-06-21T05:49:07.235Z,21.00
2018-06-21T05:50:13.793Z,22.20
2018-06-21T05:51:19.267Z,22.60
2018-06-21T05:52:23.794Z,23.80
2018-06-21T05:53:29.307Z,23.60
2018-06-21T05:54:34.823Z,24.40
2018-06-21T05:55:41.346Z,25.80
2018-06-21T05:56:47.003Z,27.00
2018-06-21T05:57:51.366Z,24.80
2018-06-21T05:58:56.909Z,27.30
2018-06-21T06:00:02.413Z,26.40
2018-06-21T06:01:08.945Z,29.60
2018-06-21T06:02:14.614Z,26.50
2018-06-21T06:03:18.955Z,27.20
2018-06-21T06:04:24.492Z,25.40
2018-06-21T06:05:29.987Z,25.90
2018-06-21T06:06:36.519Z,24.40
2018-06-21T06:07:42.042Z,26.20
2018-06-21T06:08:46.534Z,25.80
2018-06-21T06:09:52.060Z,27.90
2018-06-21T06:10:57.578Z,26.50
2018-06-21T06:12:04.101Z,25.40
2018-06-21T06:13:09.641Z,26.90
2018-06-21T06:14:14.134Z,26.50
2018-06-21T06:15:19.652Z,27.80
2018-06-21T06:16:25.159Z,29.70
2018-06-21T06:17:31.693Z,26.80
2018-06-21T06:18:37.203Z,25.60
2018-06-21T06:19:41.714Z,27.00
2018-06-21T06:20:47.230Z,27.40
2018-06-21T06:21:52.760Z,27.80
2018-06-21T06:22:59.324Z,29.20
2018-06-21T06:24:04.793Z,27.40
2018-06-21T06:25:09.308Z,27.80
2018-06-21T06:26:14.819Z,29.40
2018-06-21T06:27:20.331Z,29.40
2018-06-21T06:28:26.865Z,28.50
2018-06-21T06:29:32.384Z,31.30
2018-06-21T06:30:36.883Z,33.10
2018-06-21T06:31:42.397Z,32.70
2018-06-21T06:32:47.908Z,31.70
2018-06-21T06:33:54.447Z,35.40
2018-06-21T06:35:00.033Z,34.90
2018-06-21T06:36:04.476Z,36.20
2018-06-21T06:37:09.994Z,34.70
2018-06-21T06:38:15.506Z,36.60
2018-06-21T06:39:22.028Z,37.90
2018-06-21T06:40:27.553Z,34.20
2018-06-21T06:41:32.055Z,36.10
2018-06-21T06:42:37.580Z,31.60
2018-06-21T06:43:43.084Z,31.50
2018-06-21T06:44:49.643Z,30.90
2018-06-21T06:45:55.179Z,25.50
2018-06-21T06:46:59.642Z,20.50
2018-06-21T06:48:05.172Z,20.90
2018-06-21T06:49:10.672Z,17.90
2018-06-21T06:50:17.208Z,14.80
2018-06-21T06:51:22.718Z,15.00
2018-06-21T06:52:27.227Z,13.20
2018-06-21T06:53:32.745Z,11.50
2018-06-21T06:54:38.282Z,12.30
2018-06-21T06:55:44.788Z,9.60
2018-06-21T06:56:50.311Z,9.40
2018-06-21T06:57:54.808Z,12.30
2018-06-21T06:59:00.336Z,10.00
2018-06-21T07:00:05.841Z,11.50
2018-06-21T07:01:12.371Z,12.20
2018-06-21T07:02:17.877Z,11.90
2018-06-21T07:03:22.392Z,12.20
2018-06-21T07:04:27.908Z,12.30
2018-06-21T07:05:33.428Z,14.30
2018-06-21T07:06:39.966Z,13.30
2018-06-21T07:07:45.541Z,12.80
2018-06-21T07:08:49.957Z,13.30
2018-06-21T07:09:55.498Z,14.50
2018-06-21T07:11:00.999Z,13.70
2018-06-21T07:12:07.531Z,15.60
2018-06-21T07:13:13.044Z,13.80
2018-06-21T07:14:17.616Z,13.80
2018-06-21T07:15:23.061Z,15.90
2018-06-21T07:16:28.584Z,14.30
2018-06-21T07:17:35.111Z,14.90
2018-06-21T07:18:40.627Z,14.90
2018-06-21T07:19:45.125Z,15.00
2018-06-21T07:20:50.644Z,14.70
2018-06-21T07:21:56.159Z,17.00
2018-06-21T07:23:02.690Z,15.70
2018-06-21T07:24:08.225Z,15.50
2018-06-21T07:25:12.730Z,15.50
2018-06-21T07:26:18.240Z,16.30
2018-06-21T07:27:23.742Z,16.20
2018-06-21T07:28:30.287Z,15.90
2018-06-21T07:29:35.803Z,17.00
2018-06-21T07:30:40.292Z,15.60
2018-06-21T07:31:45.806Z,16.70
2018-06-21T07:32:51.318Z,16.90
2018-06-21T07:33:57.849Z,16.50
2018-06-21T07:35:03.361Z,19.50
2018-06-21T07:36:07.869Z,17.20
2018-06-21T07:37:13.398Z,18.70
2018-06-21T07:38:18.908Z,19.80
2018-06-21T07:39:25.433Z,17.80
2018-06-21T07:40:30.948Z,17.60
2018-06-21T07:41:35.442Z,17.60
2018-06-21T07:42:40.971Z,18.60
2018-06-21T07:43:46.491Z,18.60
2018-06-21T07:44:53.003Z,17.40
2018-06-21T07:45:58.557Z,19.30
2018-06-21T07:47:03.035Z,19.00
2018-06-21T07:48:08.536Z,18.80
2018-06-21T07:49:14.060Z,20.10
2018-06-21T07:50:20.589Z,18.70
2018-06-21T07:51:26.112Z,18.60
2018-06-21T07:52:30.602Z,18.00
2018-06-21T07:53:36.141Z,18.10
2018-06-21T07:54:41.640Z,17.40
2018-06-21T07:55:48.187Z,16.90
2018-06-21T07:56:53.686Z,17.20
2018-06-21T07:57:58.186Z,17.10
2018-06-21T07:59:03.878Z,16.20
2018-06-21T08:00:09.820Z,17.20
2018-06-21T08:01:15.749Z,15.40
2018-06-21T08:02:21.267Z,15.30
2018-06-21T08:03:25.777Z,17.70
2018-06-21T08:04:31.294Z,17.60
2018-06-21T08:05:36.766Z,16.10
2018-06-21T08:06:43.356Z,16.60
2018-06-21T08:07:48.857Z,16.30
2018-06-21T08:08:53.393Z,17.20
2018-06-21T08:09:58.869Z,16.90
2018-06-21T08:11:04.405Z,16.80
2018-06-21T08:12:10.917Z,16.00
2018-06-21T08:13:16.435Z,16.30
2018-06-21T08:14:20.950Z,16.00
2018-06-21T08:15:26.467Z,17.80
2018-06-21T08:16:31.977Z,15.40
2018-06-21T08:17:38.499Z,16.80
2018-06-21T08:18:44.016Z,14.60
2018-06-21T08:19:48.529Z,11.00
2018-06-21T08:20:54.044Z,11.50
2018-06-21T08:21:59.588Z,9.90
2018-06-21T08:23:06.143Z,11.50
2018-06-21T08:24:11.602Z,11.00
2018-06-21T08:25:16.117Z,9.30
2018-06-21T08:26:21.630Z,9.60
2018-06-21T08:27:27.165Z,9.40
2018-06-21T08:28:33.662Z,9.60
2018-06-21T08:29:39.185Z,8.60
2018-06-21T08:30:43.690Z,10.00
2018-06-21T08:31:49.211Z,10.20
2018-06-21T08:32:54.854Z,8.90
2018-06-21T08:34:01.258Z,8.90
2018-06-21T08:35:06.775Z,10.30
2018-06-21T08:36:11.290Z,7.80
2018-06-21T08:37:16.789Z,8.50
2018-06-21T08:38:22.301Z,9.10
2018-06-21T08:39:28.825Z,8.50
2018-06-21T08:40:34.351Z,9.40
2018-06-21T08:41:38.847Z,11.60
2018-06-21T08:42:44.362Z,10.30
2018-06-21T08:43:49.887Z,7.80
2018-06-21T08:44:56.410Z,9.10
2018-06-21T08:46:01.960Z,10.90
2018-06-21T08:47:06.457Z,7.60
2018-06-21T08:48:11.941Z,7.20
2018-06-21T08:49:17.455Z,7.10
2018-06-21T08:50:23.993Z,7.80
2018-06-21T08:51:29.506Z,7.40
2018-06-21T08:52:34.013Z,9.40
2018-06-21T08:53:39.520Z,9.00
2018-06-21T08:54:45.057Z,6.30
2018-06-21T08:55:51.597Z,7.60
2018-06-21T08:56:57.095Z,7.30
2018-06-21T08:58:01.589Z,8.20
2018-06-21T08:59:07.111Z,5.40
2018-06-21T09:00:12.646Z,7.40
2018-06-21T09:01:19.154Z,7.50
2018-06-21T09:02:24.698Z,7.10
2018-06-21T09:03:29.194Z,6.80
2018-06-21T09:04:34.691Z,7.90
2018-06-21T09:05:40.206Z,7.80
2018-06-21T09:06:46.734Z,11.20
2018-06-21T09:07:52.246Z,7.90
2018-06-21T09:08:56.763Z,8.40
2018-06-21T09:10:02.285Z,7.00
2018-06-21T09:11:07.785Z,7.20
2018-06-21T09:12:14.324Z,5.50
2018-06-21T09:13:19.822Z,6.60
2018-06-21T09:14:24.396Z,6.10
2018-06-21T09:15:29.850Z,5.70
2018-06-21T09:16:35.369Z,5.50
2018-06-21T09:17:41.903Z,5.70
2018-06-21T09:18:47.422Z,7.40
2018-06-21T09:19:51.920Z,5.50
2018-06-21T09:20:57.440Z,6.10
2018-06-21T09:22:02.957Z,6.20
2018-06-21T09:23:09.472Z,4.90
2018-06-21T09:24:14.997Z,5.20
2018-06-21T09:25:19.502Z,5.30
2018-06-21T09:26:25.016Z,5.50
2018-06-21T09:27:30.538Z,5.60
2018-06-21T09:28:37.059Z,5.10
2018-06-21T09:29:42.603Z,5.40
2018-06-21T09:30:47.084Z,5.20
2018-06-21T09:31:52.605Z,5.60
2018-06-21T09:32:58.128Z,7.20
2018-06-21T09:34:04.639Z,5.20
2018-06-21T09:35:10.160Z,7.80
2018-06-21T09:36:14.686Z,4.90
2018-06-21T09:37:20.240Z,6.30
2018-06-21T09:38:25.712Z,3.50
2018-06-21T09:39:32.238Z,5.20
2018-06-21T09:40:38.369Z,3.90
2018-06-21T09:41:42.245Z,6.00
2018-06-21T09:42:47.779Z,3.90
2018-06-21T09:44:03.830Z,6.90
2018-06-21T09:44:59.819Z,5.70
2018-06-21T09:46:05.331Z,6.30
2018-06-21T09:47:09.832Z,3.80
2018-06-21T09:48:15.339Z,5.20
2018-06-21T09:49:20.865Z,6.50
2018-06-21T09:50:27.396Z,5.60
2018-06-21T09:51:32.923Z,3.90
2018-06-21T09:52:37.491Z,5.00
2018-06-21T09:53:42.965Z,6.40
2018-06-21T09:54:48.448Z,4.80
2018-06-21T09:55:54.993Z,6.40
2018-06-21T09:57:00.501Z,5.60
2018-06-21T09:58:05.006Z,4.50
2018-06-21T09:59:10.518Z,5.80
2018-06-21T10:00:16.044Z,6.30
2018-06-21T10:01:22.562Z,4.40
2018-06-21T10:02:28.078Z,6.60
2018-06-21T10:03:32.609Z,7.00
2018-06-21T10:04:38.097Z,6.30
2018-06-21T10:05:43.613Z,7.50
2018-06-21T10:06:50.171Z,7.80
2018-06-21T10:07:55.684Z,4.40
2018-06-21T10:09:00.170Z,4.90
2018-06-21T10:10:05.681Z,5.10
2018-06-21T10:11:11.201Z,5.80
2018-06-21T10:12:17.742Z,11.50
2018-06-21T10:13:23.239Z,5.90
2018-06-21T10:14:27.769Z,6.90
2018-06-21T10:15:33.280Z,5.70
2018-06-21T10:16:38.785Z,4.40
2018-06-21T10:17:45.315Z,5.60
2018-06-21T10:18:50.840Z,3.40
2018-06-21T10:19:55.356Z,4.00
2018-06-21T10:21:00.851Z,6.70
2018-06-21T10:22:06.373Z,5.30
2018-06-21T10:23:12.895Z,7.50
2018-06-21T10:24:18.413Z,5.00
2018-06-21T10:25:22.934Z,5.90
2018-06-21T10:26:28.437Z,5.00
2018-06-21T10:27:33.966Z,5.20
2018-06-21T10:28:40.475Z,4.90
2018-06-21T10:29:46.001Z,4.00
2018-06-21T10:30:50.511Z,5.30
2018-06-21T10:31:56.016Z,30.50
2018-06-21T10:33:01.570Z,11.30
2018-06-21T10:34:08.064Z,10.40
2018-06-21T10:35:13.581Z,10.20
2018-06-21T10:36:18.102Z,7.40
2018-06-21T10:37:23.609Z,9.30
2018-06-21T10:38:29.135Z,6.00
2018-06-21T10:39:35.656Z,6.70
2018-06-21T10:40:41.179Z,5.40
2018-06-21T10:41:45.690Z,5.00
2018-06-21T10:42:51.194Z,6.90
2018-06-21T10:43:56.710Z,6.80
2018-06-21T10:45:03.239Z,6.70
2018-06-21T10:46:08.771Z,9.00
2018-06-21T10:47:13.261Z,4.90
2018-06-21T10:48:18.793Z,6.30
2018-06-21T10:49:24.297Z,6.80
2018-06-21T10:50:30.825Z,5.70
2018-06-21T10:51:36.341Z,5.40
2018-06-21T10:52:40.856Z,5.10
2018-06-21T10:53:46.366Z,10.90
2018-06-21T10:54:51.896Z,7.30
2018-06-21T10:55:58.407Z,6.30
2018-06-21T10:57:03.995Z,7.40
2018-06-21T10:58:08.441Z,8.10
2018-06-21T10:59:13.958Z,5.60
2018-06-21T11:00:19.475Z,4.40
2018-06-21T11:01:26.024Z,5.10
2018-06-21T11:02:31.516Z,5.30
2018-06-21T11:03:36.042Z,5.80
2018-06-21T11:04:41.538Z,7.20
2018-06-21T11:05:47.056Z,6.80
2018-06-21T11:06:53.596Z,6.80
2018-06-21T11:07:59.117Z,6.00
2018-06-21T11:09:03.610Z,7.00
2018-06-21T11:10:09.150Z,4.80
2018-06-21T11:11:14.671Z,7.80
2018-06-21T11:12:21.166Z,6.80
2018-06-21T11:13:26.709Z,5.10
2018-06-21T11:14:31.198Z,6.50
2018-06-21T11:15:36.730Z,6.50
2018-06-21T11:16:42.244Z,6.40
2018-06-21T11:17:48.772Z,5.90
2018-06-21T11:18:54.276Z,6.00
2018-06-21T11:19:58.785Z,6.00
2018-06-21T11:21:04.312Z,7.20
2018-06-21T11:22:09.826Z,5.80
2018-06-21T11:23:16.344Z,3.70
2018-06-21T11:24:21.878Z,7.10
2018-06-21T11:25:26.387Z,7.60
2018-06-21T11:26:31.902Z,6.20
2018-06-21T11:27:37.478Z,5.00
2018-06-21T11:28:43.943Z,7.40
2018-06-21T11:29:49.453Z,6.20
2018-06-21T11:30:53.963Z,5.50
2018-06-21T11:31:59.480Z,5.10
2018-06-21T11:33:05.008Z,6.30
2018-06-21T11:34:11.543Z,8.40
2018-06-21T11:35:17.045Z,4.70
2018-06-21T11:36:21.569Z,4.70
2018-06-21T11:37:27.069Z,5.20
2018-06-21T11:38:32.584Z,5.70
2018-06-21T11:39:39.131Z,5.20
2018-06-21T11:40:44.626Z,5.60
2018-06-21T11:41:49.146Z,5.50
2018-06-21T11:42:54.665Z,4.80
2018-06-21T11:44:00.192Z,5.60
2018-06-21T11:45:06.708Z,6.40
2018-06-21T11:46:12.231Z,5.00
2018-06-21T11:47:16.722Z,5.70
2018-06-21T11:48:22.253Z,4.50
2018-06-21T11:49:27.754Z,7.50
2018-06-21T11:50:34.284Z,4.10
2018-06-21T11:51:39.823Z,8.30
2018-06-21T11:52:44.315Z,7.50
2018-06-21T11:53:49.833Z,8.00
2018-06-21T11:54:55.363Z,6.50
2018-06-21T11:56:01.894Z,6.10
2018-06-21T11:57:07.406Z,5.80
2018-06-21T11:58:11.921Z,6.10
2018-06-21T11:59:17.426Z,5.10
2018-06-21T12:00:22.950Z,7.70
2018-06-21T12:01:29.471Z,4.50
2018-06-21T12:02:34.983Z,5.90
2018-06-21T12:03:39.492Z,7.80
2018-06-21T12:04:45.012Z,6.70
2018-06-21T12:05:50.528Z,6.60
2018-06-21T12:06:57.063Z,5.60
2018-06-21T12:08:02.569Z,5.70
2018-06-21T12:09:07.088Z,4.80
2018-06-21T12:10:12.661Z,5.50
2018-06-21T12:11:18.120Z,6.20
2018-06-21T12:12:24.626Z,7.50
2018-06-21T12:13:30.162Z,7.30
2018-06-21T12:14:34.661Z,4.60
2018-06-21T12:15:40.174Z,5.70
2018-06-21T12:16:45.696Z,5.60
2018-06-21T12:17:52.231Z,7.40
2018-06-21T12:18:57.749Z,7.30
2018-06-21T12:20:02.243Z,6.20
2018-06-21T12:21:07.775Z,7.80
2018-06-21T12:22:13.303Z,4.60
2018-06-21T12:23:19.814Z,7.20
2018-06-21T12:24:25.317Z,5.70
2018-06-21T12:25:29.838Z,9.70
2018-06-21T12:26:35.358Z,6.40
2018-06-21T12:27:40.882Z,7.60
2018-06-21T12:28:47.387Z,8.00
2018-06-21T12:29:52.932Z,7.30
2018-06-21T12:30:57.421Z,7.10
2018-06-21T12:32:02.954Z,6.80
2018-06-21T12:33:08.453Z,6.60
2018-06-21T12:34:14.986Z,6.90
2018-06-21T12:35:20.485Z,5.90
2018-06-21T12:36:24.996Z,4.80
2018-06-21T12:37:30.505Z,9.00
2018-06-21T12:38:36.030Z,6.90
2018-06-21T12:39:42.561Z,7.10
2018-06-21T12:40:48.075Z,5.40
2018-06-21T12:41:52.589Z,5.20
2018-06-21T12:42:58.100Z,8.00
2018-06-21T12:44:03.610Z,9.90
2018-06-21T12:45:10.139Z,7.00
2018-06-21T12:46:15.665Z,5.80
2018-06-21T12:47:20.170Z,9.20
2018-06-21T12:48:25.682Z,5.30
2018-06-21T12:49:31.204Z,6.20
2018-06-21T12:50:37.726Z,4.30
2018-06-21T12:51:43.248Z,8.00
2018-06-21T12:52:47.759Z,4.20
2018-06-21T12:53:53.271Z,7.60
2018-06-21T12:54:58.777Z,10.40
2018-06-21T12:56:05.317Z,6.20
2018-06-21T12:57:10.862Z,5.20
2018-06-21T12:58:15.356Z,7.40
2018-06-21T12:59:20.868Z,6.00
2018-06-21T13:00:26.375Z,4.20
2018-06-21T13:01:32.900Z,5.00
2018-06-21T13:02:38.422Z,7.10
2018-06-21T13:03:42.928Z,7.00
2018-06-21T13:04:48.435Z,5.20
2018-06-21T13:05:54.041Z,5.10
2018-06-21T13:07:00.481Z,5.40
2018-06-21T13:08:06.009Z,7.50
2018-06-21T13:09:10.503Z,6.20
2018-06-21T13:10:16.015Z,14.00
2018-06-21T13:11:21.555Z,4.50
2018-06-21T13:12:28.109Z,7.40
2018-06-21T13:13:33.580Z,7.30
2018-06-21T13:14:38.079Z,7.60
2018-06-21T13:15:43.618Z,6.10
2018-06-21T13:16:49.123Z,7.10
2018-06-21T13:17:55.674Z,10.20
2018-06-21T13:19:01.174Z,8.00
2018-06-21T13:20:05.679Z,7.00
2018-06-21T13:21:11.213Z,5.40
2018-06-21T13:22:16.735Z,5.10
2018-06-21T13:23:23.234Z,6.40
2018-06-21T13:24:28.777Z,7.20
2018-06-21T13:25:33.268Z,4.10
2018-06-21T13:26:38.770Z,6.30
2018-06-21T13:27:44.297Z,6.80
2018-06-21T13:28:50.848Z,4.90
2018-06-21T13:29:56.331Z,5.70
2018-06-21T13:31:00.858Z,9.10
2018-06-21T13:32:06.360Z,6.90
2018-06-21T13:33:11.888Z,6.00
2018-06-21T13:34:18.411Z,7.20
2018-06-21T13:35:23.944Z,6.00
2018-06-21T13:36:28.436Z,5.70
2018-06-21T13:37:33.956Z,7.30
2018-06-21T13:38:39.471Z,4.70
2018-06-21T13:39:45.995Z,5.90
2018-06-21T13:40:51.521Z,6.00
2018-06-21T13:41:56.029Z,6.30
2018-06-21T13:43:01.555Z,5.20
2018-06-21T13:44:07.051Z,5.00
2018-06-21T13:45:13.579Z,5.00
2018-06-21T13:46:19.092Z,5.20
2018-06-21T13:47:23.606Z,6.10
2018-06-21T13:48:29.131Z,7.00
2018-06-21T13:49:34.648Z,5.50
2018-06-21T13:50:41.168Z,4.60
2018-06-21T13:51:46.684Z,5.40
2018-06-21T13:52:51.202Z,6.50
2018-06-21T13:53:56.701Z,4.50
2018-06-21T13:55:02.240Z,5.80
2018-06-21T13:56:08.752Z,5.10
2018-06-21T13:57:14.300Z,6.10
2018-06-21T13:58:18.768Z,7.70
2018-06-21T13:59:24.315Z,4.60
2018-06-21T14:00:29.836Z,6.30
2018-06-21T14:01:36.352Z,4.80
2018-06-21T14:02:41.864Z,4.50
2018-06-21T14:03:46.361Z,6.90
2018-06-21T14:04:51.881Z,7.50
2018-06-21T14:05:57.398Z,5.10
2018-06-21T14:07:03.946Z,5.60
2018-06-21T14:08:09.574Z,4.00
2018-06-21T14:09:13.949Z,5.90
2018-06-21T14:10:19.481Z,7.30
2018-06-21T14:11:24.994Z,5.30
2018-06-21T14:12:31.515Z,7.30
2018-06-21T14:13:37.037Z,5.30
2018-06-21T14:14:41.558Z,5.90
2018-06-21T14:15:47.072Z,5.90
2018-06-21T14:16:52.571Z,5.60
2018-06-21T14:17:59.097Z,4.70
2018-06-21T14:19:04.619Z,3.20